createdAt,value
2023-03-25T00:01:08.576Z,98041.98
2023-03-25T00:03:41.327Z,98042.00
2023-03-25T00:06:10.204Z,98043.80
2023-03-25T00:08:37.132Z,98043.34
2023-03-25T00:11:04.832Z,98043.64
2023-03-25T00:13:31.292Z,98045.07
2023-03-25T00:15:58.363Z,98044.05
2023-03-25T00:18:34.799Z,98041.17
2023-03-25T00:21:02.647Z,98040.94
2023-03-25T00:23:30.979Z,98042.02
2023-03-25T00:26:00.847Z,98037.52
2023-03-25T00:28:30.278Z,98037.31
2023-03-25T00:31:05.704Z,98034.89
2023-03-25T00:33:32.683Z,98029.25
2023-03-25T00:35:59.596Z,98025.46
2023-03-25T00:38:32.831Z,98017.02
2023-03-25T00:41:11.846Z,98014.45
2023-03-25T00:43:39.851Z,98010.68
2023-03-25T00:46:06.442Z,98007.61
2023-03-25T00:48:33.063Z,98004.55
2023-03-25T00:51:06.536Z,97993.84
2023-03-25T00:53:33.865Z,97994.12
2023-03-25T00:56:00.848Z,97992.45
2023-03-25T00:58:28.859Z,97990.35
2023-03-25T01:00:58.912Z,97992.98
2023-03-25T01:03:28.226Z,97988.59
2023-03-25T01:05:57.296Z,97984.84
2023-03-25T01:08:24.625Z,97980.84
2023-03-25T01:10:54.945Z,97982.83
2023-03-25T01:13:22.622Z,97977.80
2023-03-25T01:15:49.480Z,97984.63
2023-03-25T01:18:16.621Z,97985.00
2023-03-25T01:20:43.798Z,97983.37
2023-03-25T01:23:10.804Z,97980.98
2023-03-25T01:25:37.653Z,97974.31
2023-03-25T01:28:05.080Z,97976.51
2023-03-25T01:30:31.555Z,97970.73
2023-03-25T01:32:58.557Z,97970.02
2023-03-25T01:35:25.823Z,97964.59
2023-03-25T01:37:53.810Z,97959.04
2023-03-25T01:40:23.198Z,97954.97
2023-03-25T01:42:50.191Z,97958.40
2023-03-25T01:45:22.464Z,97952.95
2023-03-25T01:47:55.873Z,97953.15
2023-03-25T01:50:22.505Z,97954.00
2023-03-25T01:52:51.540Z,97953.63
2023-03-25T01:55:24.116Z,97953.13
2023-03-25T01:57:54.884Z,97952.62
2023-03-25T02:00:22.395Z,97949.67
2023-03-25T02:02:50.188Z,97948.94
2023-03-25T02:05:24.761Z,97948.21
2023-03-25T02:07:52.059Z,97942.07
2023-03-25T02:10:19.306Z,97939.43
2023-03-25T02:12:46.496Z,97945.59
2023-03-25T02:15:17.332Z,97939.79
2023-03-25T02:17:53.433Z,97940.94
2023-03-25T02:20:38.632Z,97942.48
2023-03-25T02:23:21.340Z,97942.11
2023-03-25T02:26:29.215Z,97939.88
2023-03-25T02:29:07.189Z,97935.83
2023-03-25T02:32:02.544Z,97929.57
2023-03-25T02:34:45.664Z,97926.79
2023-03-25T02:37:27.946Z,97927.92
2023-03-25T02:40:06.534Z,97924.95
2023-03-25T02:42:51.461Z,97922.96
2023-03-25T02:45:32.500Z,97923.74
2023-03-25T02:48:05.221Z,97921.19
2023-03-25T02:50:51.500Z,97919.77
2023-03-25T02:53:26.683Z,97922.68
2023-03-25T02:55:58.578Z,97923.10
2023-03-25T02:58:29.311Z,97922.77
2023-03-25T03:00:58.177Z,97921.41
2023-03-25T03:03:28.375Z,97920.81
2023-03-25T03:06:02.170Z,97922.11
2023-03-25T03:08:47.058Z,97920.33
2023-03-25T03:11:37.335Z,97919.45
2023-03-25T03:14:21.930Z,97919.75
2023-03-25T03:17:07.817Z,97918.04
2023-03-25T03:19:40.617Z,97919.05
2023-03-25T03:22:37.610Z,97920.83
2023-03-25T03:25:19.447Z,97917.46
2023-03-25T03:27:53.687Z,97921.52
2023-03-25T03:30:45.917Z,97917.47
2023-03-25T03:33:24.808Z,97923.89
2023-03-25T03:36:03.848Z,97925.56
2023-03-25T03:38:36.768Z,97927.19
2023-03-25T03:41:10.321Z,97926.85
2023-03-25T03:43:42.818Z,97925.69
2023-03-25T03:46:24.096Z,97933.77
2023-03-25T03:48:56.819Z,97936.02
2023-03-25T03:51:30.155Z,97936.58
2023-03-25T03:54:01.842Z,97943.27
2023-03-25T03:56:36.521Z,97945.53
2023-03-25T03:59:13.799Z,97949.77
2023-03-25T04:01:47.437Z,97961.14
2023-03-25T04:04:21.634Z,97958.69
2023-03-25T04:07:09.915Z,97965.48
2023-03-25T04:09:54.339Z,97967.80
2023-03-25T04:12:32.934Z,97970.81
2023-03-25T04:15:05.631Z,97970.64
2023-03-25T04:17:34.836Z,97973.91
2023-03-25T04:20:08.032Z,97973.64
2023-03-25T04:22:38.466Z,97970.84
2023-03-25T04:25:06.541Z,97973.75
2023-03-25T04:27:37.012Z,97976.00
2023-03-25T04:30:05.389Z,97974.04
2023-03-25T04:32:32.014Z,97976.69
2023-03-25T04:34:59.347Z,97973.23
2023-03-25T04:37:33.175Z,97975.80
2023-03-25T04:40:00.708Z,97974.70
2023-03-25T04:42:32.034Z,97976.99
2023-03-25T04:44:59.052Z,97972.80
2023-03-25T04:47:27.028Z,97977.73
2023-03-25T04:49:54.003Z,97973.39
2023-03-25T04:52:20.606Z,97976.92
2023-03-25T04:54:47.208Z,97973.73
2023-03-25T04:57:14.647Z,97972.95
2023-03-25T04:59:41.609Z,97974.80
2023-03-25T05:02:12.536Z,97975.81
2023-03-25T05:04:41.556Z,97975.98
2023-03-25T05:07:08.182Z,97977.91
2023-03-25T05:09:34.682Z,97982.48
2023-03-25T05:12:01.151Z,97984.84
2023-03-25T05:14:27.653Z,97988.99
2023-03-25T05:16:56.806Z,97986.59
2023-03-25T05:19:23.256Z,97988.44
2023-03-25T05:21:49.749Z,97989.85
2023-03-25T05:24:16.820Z,97990.94
2023-03-25T05:26:43.355Z,97995.52
2023-03-25T05:29:13.391Z,97994.49
2023-03-25T05:31:45.829Z,97996.35
2023-03-25T05:34:13.880Z,97995.20
2023-03-25T05:36:41.177Z,97991.83
2023-03-25T05:39:07.906Z,97991.24
2023-03-25T05:41:38.263Z,97994.09
2023-03-25T05:44:06.847Z,97994.19
2023-03-25T05:46:34.120Z,97989.85
2023-03-25T05:49:01.298Z,97989.81
2023-03-25T05:51:36.830Z,97993.30
2023-03-25T05:54:08.127Z,97990.95
2023-03-25T05:56:36.393Z,97992.19
2023-03-25T05:59:04.422Z,97992.86
2023-03-25T06:01:34.400Z,97993.58
2023-03-25T06:04:03.584Z,97988.62
2023-03-25T06:06:33.559Z,97988.73
2023-03-25T06:09:00.543Z,97990.61
2023-03-25T06:11:27.526Z,97985.92
2023-03-25T06:13:54.567Z,97991.77
2023-03-25T06:16:26.786Z,97990.27
2023-03-25T06:18:58.729Z,97989.89
2023-03-25T06:21:32.245Z,97989.45
2023-03-25T06:24:01.141Z,98001.67
2023-03-25T06:26:27.844Z,98005.13
2023-03-25T06:28:54.867Z,98004.92
2023-03-25T06:31:25.879Z,98011.87
2023-03-25T06:33:52.990Z,98018.23
2023-03-25T06:36:20.315Z,98019.46
2023-03-25T06:38:49.744Z,98020.14
2023-03-25T06:41:20.376Z,98022.92
2023-03-25T06:43:48.735Z,98025.52
2023-03-25T06:46:16.165Z,98027.27
2023-03-25T06:48:42.711Z,98032.70
2023-03-25T06:51:10.840Z,98033.26
2023-03-25T06:53:37.966Z,98036.31
2023-03-25T06:56:04.791Z,98030.54
2023-03-25T06:58:34.111Z,98034.00
2023-03-25T07:01:05.444Z,98036.95
2023-03-25T07:03:36.467Z,98041.84
2023-03-25T07:06:05.759Z,98038.94
2023-03-25T07:08:33.108Z,98036.92
2023-03-25T07:11:04.551Z,98039.88
2023-03-25T07:13:31.078Z,98043.23
2023-03-25T07:15:58.599Z,98046.95
2023-03-25T07:18:25.952Z,98052.81
2023-03-25T07:20:52.479Z,98059.34
2023-03-25T07:23:19.576Z,98058.46
2023-03-25T07:25:46.550Z,98058.45
2023-03-25T07:28:13.403Z,98061.58
2023-03-25T07:30:40.397Z,98066.11
2023-03-25T07:33:07.084Z,98067.14
2023-03-25T07:35:33.669Z,98075.64
2023-03-25T07:38:00.826Z,98075.60
2023-03-25T07:40:37.831Z,98079.69
2023-03-25T07:43:05.223Z,98080.22
2023-03-25T07:45:44.375Z,98084.20
2023-03-25T07:48:15.601Z,98083.55
2023-03-25T07:50:45.857Z,98089.91
2023-03-25T07:53:13.247Z,98089.93
2023-03-25T07:55:50.338Z,98092.70
2023-03-25T07:58:18.902Z,98093.85
2023-03-25T08:00:47.984Z,98093.98
2023-03-25T08:03:17.596Z,98093.03
2023-03-25T08:05:48.160Z,98092.55
2023-03-25T08:08:17.661Z,98093.31
2023-03-25T08:10:47.650Z,98090.53
2023-03-25T08:13:14.925Z,98091.11
2023-03-25T08:15:41.799Z,98089.61
2023-03-25T08:18:08.597Z,98089.14
2023-03-25T08:20:35.798Z,98089.03
2023-03-25T08:23:02.949Z,98090.10
2023-03-25T08:25:31.029Z,98096.52
2023-03-25T08:27:58.127Z,98098.25
2023-03-25T08:30:24.860Z,98099.08
2023-03-25T08:32:54.307Z,98099.59
2023-03-25T08:35:24.546Z,98101.02
2023-03-25T08:37:51.575Z,98098.89
2023-03-25T08:40:19.369Z,98097.80
2023-03-25T08:42:48.258Z,98101.48
2023-03-25T08:45:15.642Z,98101.67
2023-03-25T08:47:43.437Z,98101.14
2023-03-25T08:50:10.781Z,98099.73
2023-03-25T08:52:40.623Z,98096.59
2023-03-25T08:55:09.813Z,98096.83
2023-03-25T08:57:39.140Z,98097.38
2023-03-25T09:00:15.352Z,98101.48
2023-03-25T09:02:47.189Z,98101.61
2023-03-25T09:05:18.448Z,98102.33
2023-03-25T09:07:51.172Z,98101.99
2023-03-25T09:10:27.638Z,98101.45
2023-03-25T09:12:54.496Z,98100.17
2023-03-25T09:15:26.333Z,98100.66
2023-03-25T09:17:53.620Z,98102.29
2023-03-25T09:20:20.880Z,98103.38
2023-03-25T09:22:47.626Z,98099.68
2023-03-25T09:25:14.879Z,98099.69
2023-03-25T09:27:41.700Z,98100.80
2023-03-25T09:30:09.814Z,98100.12
2023-03-25T09:32:38.478Z,98101.33
2023-03-25T09:35:06.444Z,98102.35
2023-03-25T09:37:37.028Z,98098.48
2023-03-25T09:40:08.423Z,98089.55
2023-03-25T09:42:52.835Z,98092.85
2023-03-25T09:45:33.895Z,98093.94
2023-03-25T09:48:46.924Z,98095.34
2023-03-25T09:51:41.080Z,98089.55
2023-03-25T09:54:18.437Z,98092.98
2023-03-25T09:56:47.013Z,98091.60
2023-03-25T09:59:17.982Z,98095.70
2023-03-25T10:02:19.115Z,98095.17
2023-03-25T10:05:27.800Z,98086.41
2023-03-25T10:08:04.109Z,98088.62
2023-03-25T10:11:40.151Z,98085.30
2023-03-25T10:19:00.539Z,98087.17
2023-03-25T10:22:03.346Z,98081.41
2023-03-25T10:24:35.793Z,98081.08
2023-03-25T10:27:35.610Z,98078.22
2023-03-25T10:30:21.735Z,98073.59
2023-03-25T10:33:00.966Z,98077.22
2023-03-25T10:35:49.194Z,98081.73
2023-03-25T10:38:23.419Z,98079.45
2023-03-25T10:41:20.274Z,98081.67
2023-03-25T10:43:55.606Z,98077.56
2023-03-25T10:46:30.650Z,98075.71
2023-03-25T10:48:59.191Z,98077.85
2023-03-25T10:51:30.177Z,98077.27
2023-03-25T10:54:07.725Z,98077.23
2023-03-25T10:56:38.879Z,98070.96
2023-03-25T10:59:32.050Z,98063.80
2023-03-25T11:02:30.638Z,98061.02
2023-03-25T11:05:07.292Z,98056.27
2023-03-25T11:07:46.026Z,98052.08
2023-03-25T11:10:49.551Z,98049.42
2023-03-25T11:13:27.074Z,98047.04
2023-03-25T11:15:59.071Z,98049.98
2023-03-25T11:18:43.857Z,98048.95
2023-03-25T11:21:15.097Z,98047.42
2023-03-25T11:23:48.756Z,98038.42
2023-03-25T11:26:23.505Z,98038.52
2023-03-25T11:29:03.798Z,98032.29
2023-03-25T11:31:34.459Z,98028.28
2023-03-25T11:34:05.036Z,98019.50
2023-03-25T11:36:35.052Z,98019.73
2023-03-25T11:39:11.331Z,98014.25
2023-03-25T11:41:37.857Z,98013.73
2023-03-25T11:44:06.296Z,98013.77
2023-03-25T11:46:42.517Z,98004.99
2023-03-25T11:49:11.527Z,98002.02
2023-03-25T11:51:38.329Z,98008.77
2023-03-25T11:54:13.853Z,98006.73
2023-03-25T11:56:44.283Z,98003.19
2023-03-25T11:59:27.587Z,98002.70
2023-03-25T12:02:18.219Z,98004.64
2023-03-25T12:04:55.443Z,97999.70
2023-03-25T12:07:23.754Z,97996.48
2023-03-25T12:09:56.335Z,97993.00
2023-03-25T12:12:42.484Z,97990.83
2023-03-25T12:15:41.664Z,97994.55
2023-03-25T12:18:36.654Z,97990.08
2023-03-25T12:21:03.227Z,97989.43
2023-03-25T12:24:29.489Z,97986.54
2023-03-25T12:27:13.657Z,97983.07
2023-03-25T12:30:01.954Z,97979.05
2023-03-25T12:32:34.198Z,97972.86
2023-03-25T12:35:13.688Z,97968.95
2023-03-25T12:38:12.967Z,97965.87
2023-03-25T12:41:01.279Z,97962.81
2023-03-25T12:43:58.633Z,97963.02
2023-03-25T12:46:49.176Z,97957.56
2023-03-25T12:49:34.649Z,97954.77
2023-03-25T12:52:19.505Z,97955.05
2023-03-25T12:54:55.126Z,97954.23
2023-03-25T12:57:55.503Z,97957.19
2023-03-25T13:00:29.669Z,97951.29
2023-03-25T13:03:35.458Z,97946.08
2023-03-25T13:06:25.721Z,97940.49
2023-03-25T13:09:16.652Z,97934.88
2023-03-25T13:11:51.125Z,97933.25
2023-03-25T13:14:31.484Z,97938.23
2023-03-25T13:17:03.256Z,97935.54
2023-03-25T13:19:35.909Z,97926.41
2023-03-25T13:22:17.830Z,97919.39
2023-03-25T13:25:11.287Z,97922.81
2023-03-25T13:27:42.711Z,97925.61
2023-03-25T13:30:36.355Z,97924.73
2023-03-25T13:33:16.602Z,97927.81
2023-03-25T13:36:09.069Z,97918.21
2023-03-25T13:39:05.933Z,97915.77
2023-03-25T13:41:56.482Z,97910.71
2023-03-25T13:44:33.275Z,97907.38
2023-03-25T13:47:15.362Z,97910.02
2023-03-25T13:50:00.102Z,97900.72
2023-03-25T13:52:35.940Z,97893.70
2023-03-25T13:55:33.401Z,97890.41
2023-03-25T13:58:36.542Z,97891.08
2023-03-25T14:01:20.177Z,97894.60
2023-03-25T14:03:46.745Z,97898.55
2023-03-25T14:06:34.534Z,97897.19
2023-03-25T14:09:41.062Z,97899.63
2023-03-25T14:12:29.444Z,97897.55
2023-03-25T14:15:08.579Z,97890.96
2023-03-25T14:17:39.795Z,97893.05
2023-03-25T14:20:14.555Z,97888.06
2023-03-25T14:23:35.416Z,97885.98
2023-03-25T14:30:19.692Z,97868.77
2023-03-25T14:32:53.412Z,97864.41
2023-03-25T14:35:37.821Z,97860.77
2023-03-25T14:38:42.945Z,97852.62
2023-03-25T14:41:09.716Z,97844.79
2023-03-25T14:44:29.703Z,97843.27
2023-03-25T14:47:39.903Z,97843.83
2023-03-25T14:56:18.807Z,97850.33
2023-03-25T14:58:50.298Z,97852.09
2023-03-25T15:01:23.802Z,97860.63
2023-03-25T15:04:10.795Z,97862.22
2023-03-25T15:06:43.382Z,97868.59
2023-03-25T15:09:14.427Z,97885.63
2023-03-25T15:12:17.119Z,97933.88
2023-03-25T15:18:08.778Z,97970.63
2023-03-25T15:20:35.306Z,97973.02
2023-03-25T15:23:23.586Z,97975.34
2023-03-25T15:25:52.279Z,97962.91
2023-03-25T15:28:37.117Z,97950.33
2023-03-25T15:31:27.509Z,97926.04
2023-03-25T15:34:14.816Z,97910.41
2023-03-25T15:37:10.068Z,97908.38
2023-03-25T15:40:44.775Z,97916.91
2023-03-25T15:43:20.125Z,97917.05
2023-03-25T15:46:18.219Z,97911.85
2023-03-25T15:49:25.113Z,97904.40
2023-03-25T15:52:41.681Z,97902.70
2023-03-25T15:55:13.968Z,97904.02
2023-03-25T15:58:17.630Z,97907.26
2023-03-25T16:00:53.466Z,97910.46
2023-03-25T16:03:30.623Z,97909.89
2023-03-25T16:06:04.310Z,97914.06
2023-03-25T16:08:39.262Z,97914.94
2023-03-25T16:11:20.772Z,97915.01
2023-03-25T16:14:04.225Z,97916.02
2023-03-25T16:16:35.178Z,97920.73
2023-03-25T16:19:04.250Z,97926.30
2023-03-25T16:21:32.144Z,97934.73
2023-03-25T16:24:04.390Z,97939.69
2023-03-25T16:26:41.753Z,97943.44
2023-03-25T16:29:21.811Z,97943.54
2023-03-25T16:31:56.733Z,97947.92
2023-03-25T16:34:25.261Z,97945.52
2023-03-25T16:36:53.405Z,97948.29
2023-03-25T16:39:22.300Z,97948.88
2023-03-25T16:41:51.530Z,97950.67
2023-03-25T16:44:23.021Z,97959.79
2023-03-25T16:46:52.115Z,97957.59
2023-03-25T16:49:32.397Z,97950.40
2023-03-25T16:52:02.140Z,97953.23
2023-03-25T16:54:37.855Z,97953.56
2023-03-25T16:57:09.211Z,97949.55
2023-03-25T16:59:37.547Z,97947.80
2023-03-25T17:02:23.589Z,97949.77
2023-03-25T17:04:50.437Z,97948.63
2023-03-25T17:07:25.913Z,97950.02
2023-03-25T17:09:56.941Z,97951.79
2023-03-25T17:12:26.683Z,97951.21
2023-03-25T17:15:00.609Z,97949.69
2023-03-25T17:17:40.904Z,97956.44
2023-03-25T17:20:17.368Z,97951.98
2023-03-25T17:23:07.400Z,97953.46
2023-03-25T17:25:50.734Z,97955.23
2023-03-25T17:28:23.697Z,97951.40
2023-03-25T17:30:50.874Z,97951.82
2023-03-25T17:33:38.316Z,97952.39
2023-03-25T17:36:10.385Z,97952.02
2023-03-25T17:38:51.680Z,97957.39
2023-03-25T17:41:19.828Z,97958.50
2023-03-25T17:43:52.494Z,97958.80
2023-03-25T17:46:23.217Z,97962.11
2023-03-25T17:48:52.625Z,97964.85
2023-03-25T17:51:20.290Z,97966.45
2023-03-25T17:53:48.085Z,97965.91
2023-03-25T17:56:26.818Z,97966.92
2023-03-25T17:59:06.793Z,97972.63
2023-03-25T18:01:34.600Z,97971.92
2023-03-25T18:04:01.963Z,97975.48
2023-03-25T18:06:28.325Z,97988.68
2023-03-25T18:08:54.732Z,97988.18
2023-03-25T18:11:21.392Z,97996.31
2023-03-25T18:13:48.012Z,98000.23
2023-03-25T18:16:20.216Z,98004.20
2023-03-25T18:18:48.040Z,98000.26
2023-03-25T18:21:16.601Z,98001.09
2023-03-25T18:23:46.849Z,97997.73
2023-03-25T18:26:15.512Z,97994.67
2023-03-25T18:28:43.025Z,97996.35
2023-03-25T18:31:15.270Z,97998.88
2023-03-25T18:33:43.737Z,97998.96
2023-03-25T18:36:10.940Z,97997.27
2023-03-25T18:38:37.833Z,97995.30
2023-03-25T18:41:04.624Z,97991.59
2023-03-25T18:43:31.380Z,97996.67
2023-03-25T18:45:58.270Z,97998.14
2023-03-25T18:48:25.038Z,98002.42
2023-03-25T18:50:54.096Z,98008.39
2023-03-25T18:53:27.427Z,98011.91
2023-03-25T18:55:55.425Z,98011.24
2023-03-25T18:58:24.992Z,98013.94
2023-03-25T19:00:52.865Z,98017.29
2023-03-25T19:03:29.606Z,98023.13
2023-03-25T19:05:58.113Z,98025.31
2023-03-25T19:08:25.693Z,98019.38
2023-03-25T19:10:52.394Z,98016.02
2023-03-25T19:13:20.191Z,98011.20
2023-03-25T19:15:46.814Z,98021.24
2023-03-25T19:18:20.390Z,98022.08
2023-03-25T19:20:47.975Z,98024.52
2023-03-25T19:23:16.374Z,98024.14
2023-03-25T19:25:45.255Z,98030.02
2023-03-25T19:28:16.829Z,98027.10
2023-03-25T19:30:45.505Z,98027.95
2023-03-25T19:33:12.429Z,98026.89
2023-03-25T19:35:40.659Z,98034.41
2023-03-25T19:38:08.181Z,98032.91
2023-03-25T19:40:37.369Z,98039.00
2023-03-25T19:43:06.939Z,98037.55
2023-03-25T19:45:33.741Z,98045.80
2023-03-25T19:48:00.978Z,98041.66
2023-03-25T19:50:31.416Z,98037.98
2023-03-25T19:52:59.893Z,98039.61
2023-03-25T19:55:26.531Z,98041.35
2023-03-25T19:57:53.830Z,98044.39
2023-03-25T20:00:25.461Z,98040.20
2023-03-25T20:02:57.279Z,98045.39
2023-03-25T20:05:24.564Z,98044.96
2023-03-25T20:07:51.381Z,98046.47
2023-03-25T20:10:21.537Z,98042.11
2023-03-25T20:12:50.037Z,98043.29
2023-03-25T20:15:18.495Z,98041.93
2023-03-25T20:17:47.106Z,98047.80
2023-03-25T20:20:13.724Z,98048.70
2023-03-25T20:22:40.533Z,98050.13
2023-03-25T20:25:08.660Z,98050.98
2023-03-25T20:27:36.356Z,98051.92
2023-03-25T20:30:05.354Z,98048.14
2023-03-25T20:32:40.765Z,98053.04
2023-03-25T20:35:10.470Z,98047.33
2023-03-25T20:37:39.103Z,98047.80
2023-03-25T20:40:10.522Z,98054.42
2023-03-25T20:42:39.222Z,98053.55
2023-03-25T20:45:06.935Z,98053.13
2023-03-25T20:47:46.986Z,98057.39
2023-03-25T20:50:16.102Z,98055.48
2023-03-25T20:52:46.093Z,98054.67
2023-03-25T20:55:17.002Z,98052.06
2023-03-25T20:57:43.693Z,98048.55
2023-03-25T21:00:17.880Z,98050.21
2023-03-25T21:02:49.719Z,98050.48
2023-03-25T21:05:16.350Z,98052.33
2023-03-25T21:07:43.071Z,98048.75
2023-03-25T21:10:10.083Z,98048.15
2023-03-25T21:12:43.839Z,98047.98
2023-03-25T21:15:13.672Z,98051.80
2023-03-25T21:17:40.792Z,98052.77
2023-03-25T21:20:08.545Z,98048.95
2023-03-25T21:22:35.159Z,98050.57
2023-03-25T21:25:01.953Z,98050.17
2023-03-25T21:27:39.234Z,98049.46
2023-03-25T21:30:08.767Z,98045.95
2023-03-25T21:32:35.202Z,98049.89
2023-03-25T21:35:01.670Z,98048.08
2023-03-25T21:37:28.609Z,98046.19
2023-03-25T21:39:57.452Z,98047.08
2023-03-25T21:42:24.649Z,98047.09
2023-03-25T21:44:51.140Z,98043.33
2023-03-25T21:47:17.685Z,98046.96
2023-03-25T21:49:44.177Z,98048.83
2023-03-25T21:52:12.411Z,98048.52
2023-03-25T21:54:42.752Z,98050.19
2023-03-25T21:57:10.710Z,98053.59
2023-03-25T21:59:37.270Z,98047.14
2023-03-25T22:02:03.921Z,98041.80
2023-03-25T22:04:32.844Z,98043.98
2023-03-25T22:06:59.257Z,98045.52
2023-03-25T22:09:26.169Z,98048.31
2023-03-25T22:11:53.126Z,98047.17
2023-03-25T22:14:19.852Z,98046.38
2023-03-25T22:16:46.326Z,98046.98
2023-03-25T22:19:13.097Z,98047.23
2023-03-25T22:21:40.211Z,98049.50
2023-03-25T22:24:07.889Z,98051.46
2023-03-25T22:26:38.593Z,98054.88
2023-03-25T22:29:07.190Z,98054.02
2023-03-25T22:31:38.805Z,98054.51
2023-03-25T22:34:11.560Z,98054.16
2023-03-25T22:36:42.203Z,98057.23
2023-03-25T22:39:09.729Z,98058.46
2023-03-25T22:41:36.422Z,98060.97
2023-03-25T22:44:02.913Z,98058.43
2023-03-25T22:46:31.420Z,98059.52
2023-03-25T22:48:58.317Z,98057.09
2023-03-25T22:51:26.696Z,98059.42
2023-03-25T22:53:53.211Z,98059.27
2023-03-25T22:56:20.769Z,98061.41
2023-03-25T22:58:47.294Z,98057.62
2023-03-25T23:01:23.057Z,98059.27
2023-03-25T23:03:51.447Z,98057.01
2023-03-25T23:06:18.402Z,98056.27
2023-03-25T23:08:44.833Z,98054.66
2023-03-25T23:11:24.481Z,98051.50
2023-03-25T23:13:56.715Z,98053.64
2023-03-25T23:16:26.481Z,98053.84
2023-03-25T23:18:53.752Z,98054.06
2023-03-25T23:21:25.975Z,98060.75
2023-03-25T23:23:56.263Z,98059.85
2023-03-25T23:26:28.278Z,98060.64
2023-03-25T23:28:59.722Z,98062.09
2023-03-25T23:31:29.232Z,98055.23
2023-03-25T23:33:58.340Z,98057.36
2023-03-25T23:36:27.520Z,98058.31
2023-03-25T23:38:54.402Z,98050.86
2023-03-25T23:41:22.454Z,98049.70
2023-03-25T23:43:53.994Z,98041.60
2023-03-25T23:46:21.857Z,98043.67
2023-03-25T23:48:48.654Z,98043.45
2023-03-25T23:51:19.638Z,98042.55
2023-03-25T23:53:48.266Z,98048.58
2023-03-25T23:56:16.676Z,98055.12
2023-03-25T23:58:43.920Z,98053.05
